sensor_id;sensor_type;location;lat;lon;timestamp;P1;durP1;ratioP1;P2;durP2;ratioP2
26750;SDS011;14345;48.272;25.926;2023-07-13T00:00:25;6.75;;;4.50;;
26750;SDS011;14345;48.272;25.926;2023-07-13T00:02:51;4.95;;;3.83;;
26750;SDS011;14345;48.272;25.926;2023-07-13T00:05:20;5.10;;;3.80;;
26750;SDS011;14345;48.272;25.926;2023-07-13T00:07:47;4.28;;;3.88;;
26750;SDS011;14345;48.272;25.926;2023-07-13T00:10:13;5.35;;;4.22;;
26750;SDS011;14345;48.272;25.926;2023-07-13T00:12:39;5.13;;;3.90;;
26750;SDS011;14345;48.272;25.926;2023-07-13T00:15:07;5.10;;;3.63;;
26750;SDS011;14345;48.272;25.926;2023-07-13T00:17:33;5.85;;;4.07;;
26750;SDS011;14345;48.272;25.926;2023-07-13T00:19:59;4.03;;;3.38;;
26750;SDS011;14345;48.272;25.926;2023-07-13T00:22:25;5.32;;;3.72;;
26750;SDS011;14345;48.272;25.926;2023-07-13T00:24:52;4.40;;;3.70;;
26750;SDS011;14345;48.272;25.926;2023-07-13T00:27:20;4.68;;;4.03;;
26750;SDS011;14345;48.272;25.926;2023-07-13T00:29:46;6.18;;;4.30;;
26750;SDS011;14345;48.272;25.926;2023-07-13T00:32:12;5.03;;;3.92;;
26750;SDS011;14345;48.272;25.926;2023-07-13T00:34:38;4.53;;;4.03;;
26750;SDS011;14345;48.272;25.926;2023-07-13T00:37:05;4.95;;;4.43;;
26750;SDS011;14345;48.272;25.926;2023-07-13T00:39:34;4.40;;;4.00;;
26750;SDS011;14345;48.272;25.926;2023-07-13T00:42:01;5.30;;;4.22;;
26750;SDS011;14345;48.272;25.926;2023-07-13T00:44:27;4.78;;;4.10;;
26750;SDS011;14345;48.272;25.926;2023-07-13T00:46:54;8.45;;;5.30;;
26750;SDS011;14345;48.272;25.926;2023-07-13T00:49:22;5.03;;;4.53;;
26750;SDS011;14345;48.272;25.926;2023-07-13T00:54:17;5.90;;;5.13;;
26750;SDS011;14345;48.272;25.926;2023-07-13T00:56:43;5.97;;;5.22;;
26750;SDS011;14345;48.272;25.926;2023-07-13T00:59:10;5.40;;;4.88;;
26750;SDS011;14345;48.272;25.926;2023-07-13T01:01:37;7.75;;;5.20;;
26750;SDS011;14345;48.272;25.926;2023-07-13T01:04:04;6.18;;;5.32;;
26750;SDS011;14345;48.272;25.926;2023-07-13T01:06:33;6.53;;;5.80;;
26750;SDS011;14345;48.272;25.926;2023-07-13T01:08:59;7.13;;;5.43;;
26750;SDS011;14345;48.272;25.926;2023-07-13T01:11:25;8.35;;;6.07;;
26750;SDS011;14345;48.272;25.926;2023-07-13T01:13:52;6.72;;;5.90;;
26750;SDS011;14345;48.272;25.926;2023-07-13T01:16:24;6.65;;;5.45;;
26750;SDS011;14345;48.272;25.926;2023-07-13T01:18:50;6.47;;;5.28;;
26750;SDS011;14345;48.272;25.926;2023-07-13T01:21:16;7.20;;;5.72;;
26750;SDS011;14345;48.272;25.926;2023-07-13T01:23:43;6.40;;;5.63;;
26750;SDS011;14345;48.272;25.926;2023-07-13T01:26:09;7.50;;;5.85;;
26750;SDS011;14345;48.272;25.926;2023-07-13T01:28:37;6.57;;;5.88;;
26750;SDS011;14345;48.272;25.926;2023-07-13T01:31:03;6.25;;;5.65;;
26750;SDS011;14345;48.272;25.926;2023-07-13T01:33:29;8.10;;;6.43;;
26750;SDS011;14345;48.272;25.926;2023-07-13T01:35:56;6.30;;;5.70;;
26750;SDS011;14345;48.272;25.926;2023-07-13T01:38:25;7.22;;;6.25;;
26750;SDS011;14345;48.272;25.926;2023-07-13T01:40:51;7.70;;;5.65;;
26750;SDS011;14345;48.272;25.926;2023-07-13T01:43:18;6.63;;;5.65;;
26750;SDS011;14345;48.272;25.926;2023-07-13T01:45:44;8.75;;;5.60;;
26750;SDS011;14345;48.272;25.926;2023-07-13T01:48:10;8.73;;;5.63;;
26750;SDS011;14345;48.272;25.926;2023-07-13T01:50:36;7.53;;;6.20;;
26750;SDS011;14345;48.272;25.926;2023-07-13T01:53:02;6.90;;;5.85;;
26750;SDS011;14345;48.272;25.926;2023-07-13T01:55:29;8.25;;;5.80;;
26750;SDS011;14345;48.272;25.926;2023-07-13T01:57:55;6.93;;;5.85;;
26750;SDS011;14345;48.272;25.926;2023-07-13T02:00:21;8.75;;;6.07;;
26750;SDS011;14345;48.272;25.926;2023-07-13T02:02:47;6.90;;;6.15;;
26750;SDS011;14345;48.272;25.926;2023-07-13T02:05:14;6.47;;;5.72;;
26750;SDS011;14345;48.272;25.926;2023-07-13T02:07:40;7.25;;;6.03;;
26750;SDS011;14345;48.272;25.926;2023-07-13T02:10:07;6.57;;;5.50;;
26750;SDS011;14345;48.272;25.926;2023-07-13T02:12:33;9.55;;;6.38;;
26750;SDS011;14345;48.272;25.926;2023-07-13T02:14:59;8.32;;;6.35;;
26750;SDS011;14345;48.272;25.926;2023-07-13T02:17:26;6.63;;;5.95;;
26750;SDS011;14345;48.272;25.926;2023-07-13T02:19:52;6.63;;;5.90;;
26750;SDS011;14345;48.272;25.926;2023-07-13T02:22:19;5.97;;;5.38;;
26750;SDS011;14345;48.272;25.926;2023-07-13T02:24:45;7.63;;;5.50;;
26750;SDS011;14345;48.272;25.926;2023-07-13T02:27:11;6.00;;;5.38;;
26750;SDS011;14345;48.272;25.926;2023-07-13T02:29:37;9.07;;;5.78;;
26750;SDS011;14345;48.272;25.926;2023-07-13T02:32:03;8.15;;;6.28;;
26750;SDS011;14345;48.272;25.926;2023-07-13T02:34:29;6.50;;;5.63;;
26750;SDS011;14345;48.272;25.926;2023-07-13T02:36:55;8.05;;;6.20;;
26750;SDS011;14345;48.272;25.926;2023-07-13T02:39:21;6.72;;;5.95;;
26750;SDS011;14345;48.272;25.926;2023-07-13T02:41:47;8.02;;;6.70;;
26750;SDS011;14345;48.272;25.926;2023-07-13T02:44:13;6.47;;;5.80;;
26750;SDS011;14345;48.272;25.926;2023-07-13T02:46:39;7.28;;;6.13;;
26750;SDS011;14345;48.272;25.926;2023-07-13T02:49:06;7.28;;;5.82;;
26750;SDS011;14345;48.272;25.926;2023-07-13T02:51:32;7.40;;;5.63;;
26750;SDS011;14345;48.272;25.926;2023-07-13T02:53:59;6.65;;;5.95;;
26750;SDS011;14345;48.272;25.926;2023-07-13T02:56:26;6.30;;;5.38;;
26750;SDS011;14345;48.272;25.926;2023-07-13T02:58:52;6.63;;;5.82;;
26750;SDS011;14345;48.272;25.926;2023-07-13T03:01:20;7.95;;;6.85;;
26750;SDS011;14345;48.272;25.926;2023-07-13T03:03:47;11.10;;;8.23;;
26750;SDS011;14345;48.272;25.926;2023-07-13T03:06:13;16.48;;;11.68;;
26750;SDS011;14345;48.272;25.926;2023-07-13T03:08:39;12.55;;;10.15;;
26750;SDS011;14345;48.272;25.926;2023-07-13T03:11:07;11.23;;;8.52;;
26750;SDS011;14345;48.272;25.926;2023-07-13T03:13:33;9.18;;;7.47;;
26750;SDS011;14345;48.272;25.926;2023-07-13T03:15:59;9.93;;;6.85;;
26750;SDS011;14345;48.272;25.926;2023-07-13T03:18:26;7.85;;;6.20;;
26750;SDS011;14345;48.272;25.926;2023-07-13T03:20:53;7.72;;;6.60;;
26750;SDS011;14345;48.272;25.926;2023-07-13T03:23:19;8.65;;;6.15;;
26750;SDS011;14345;48.272;25.926;2023-07-13T03:25:45;7.47;;;6.15;;
26750;SDS011;14345;48.272;25.926;2023-07-13T03:28:11;7.10;;;5.30;;
26750;SDS011;14345;48.272;25.926;2023-07-13T03:30:37;7.15;;;5.50;;
26750;SDS011;14345;48.272;25.926;2023-07-13T03:33:03;5.80;;;5.20;;
26750;SDS011;14345;48.272;25.926;2023-07-13T03:35:29;10.60;;;8.00;;
26750;SDS011;14345;48.272;25.926;2023-07-13T03:37:57;11.65;;;8.85;;
26750;SDS011;14345;48.272;25.926;2023-07-13T03:40:24;8.45;;;6.13;;
26750;SDS011;14345;48.272;25.926;2023-07-13T03:42:51;6.03;;;5.43;;
26750;SDS011;14345;48.272;25.926;2023-07-13T03:45:17;7.95;;;5.95;;
26750;SDS011;14345;48.272;25.926;2023-07-13T03:47:43;9.48;;;6.05;;
26750;SDS011;14345;48.272;25.926;2023-07-13T03:50:09;8.10;;;6.90;;
26750;SDS011;14345;48.272;25.926;2023-07-13T03:52:35;7.90;;;6.55;;
26750;SDS011;14345;48.272;25.926;2023-07-13T03:55:01;8.48;;;5.82;;
26750;SDS011;14345;48.272;25.926;2023-07-13T03:57:27;6.60;;;5.70;;
26750;SDS011;14345;48.272;25.926;2023-07-13T03:59:53;5.55;;;4.97;;
26750;SDS011;14345;48.272;25.926;2023-07-13T04:02:20;6.65;;;5.10;;
26750;SDS011;14345;48.272;25.926;2023-07-13T04:04:46;4.75;;;4.28;;
26750;SDS011;14345;48.272;25.926;2023-07-13T04:07:12;5.60;;;4.78;;
26750;SDS011;14345;48.272;25.926;2023-07-13T04:09:38;4.80;;;4.18;;
26750;SDS011;14345;48.272;25.926;2023-07-13T04:12:04;4.88;;;4.15;;
26750;SDS011;14345;48.272;25.926;2023-07-13T04:14:30;5.07;;;4.32;;
26750;SDS011;14345;48.272;25.926;2023-07-13T04:16:56;6.00;;;4.32;;
26750;SDS011;14345;48.272;25.926;2023-07-13T04:19:22;7.78;;;6.55;;
26750;SDS011;14345;48.272;25.926;2023-07-13T04:21:48;11.23;;;9.10;;
26750;SDS011;14345;48.272;25.926;2023-07-13T04:24:14;7.72;;;6.93;;
26750;SDS011;14345;48.272;25.926;2023-07-13T04:26:40;7.03;;;6.32;;
26750;SDS011;14345;48.272;25.926;2023-07-13T04:29:07;6.80;;;6.10;;
26750;SDS011;14345;48.272;25.926;2023-07-13T04:31:33;6.57;;;5.50;;
26750;SDS011;14345;48.272;25.926;2023-07-13T04:33:59;6.82;;;5.10;;
26750;SDS011;14345;48.272;25.926;2023-07-13T04:36:25;6.05;;;4.68;;
26750;SDS011;14345;48.272;25.926;2023-07-13T04:38:52;7.07;;;5.43;;
26750;SDS011;14345;48.272;25.926;2023-07-13T04:41:19;6.80;;;6.05;;
26750;SDS011;14345;48.272;25.926;2023-07-13T04:43:45;5.90;;;5.30;;
26750;SDS011;14345;48.272;25.926;2023-07-13T04:46:12;7.32;;;5.18;;
26750;SDS011;14345;48.272;25.926;2023-07-13T04:48:38;5.70;;;5.20;;
26750;SDS011;14345;48.272;25.926;2023-07-13T04:51:04;6.00;;;4.97;;
26750;SDS011;14345;48.272;25.926;2023-07-13T04:53:31;5.63;;;4.95;;
26750;SDS011;14345;48.272;25.926;2023-07-13T04:55:57;5.50;;;4.72;;
26750;SDS011;14345;48.272;25.926;2023-07-13T04:58:23;5.95;;;4.53;;
26750;SDS011;14345;48.272;25.926;2023-07-13T05:00:49;7.03;;;6.32;;
26750;SDS011;14345;48.272;25.926;2023-07-13T05:03:15;8.25;;;7.45;;
26750;SDS011;14345;48.272;25.926;2023-07-13T05:05:41;12.80;;;11.45;;
26750;SDS011;14345;48.272;25.926;2023-07-13T05:08:08;17.58;;;14.52;;
26750;SDS011;14345;48.272;25.926;2023-07-13T05:10:34;12.45;;;10.77;;
26750;SDS011;14345;48.272;25.926;2023-07-13T05:13:01;9.63;;;8.63;;
26750;SDS011;14345;48.272;25.926;2023-07-13T05:15:26;8.23;;;6.82;;
26750;SDS011;14345;48.272;25.926;2023-07-13T05:17:52;7.05;;;5.95;;
26750;SDS011;14345;48.272;25.926;2023-07-13T05:20:19;5.53;;;4.93;;
26750;SDS011;14345;48.272;25.926;2023-07-13T05:22:45;7.18;;;5.68;;
26750;SDS011;14345;48.272;25.926;2023-07-13T05:25:15;6.32;;;5.18;;
26750;SDS011;14345;48.272;25.926;2023-07-13T05:27:41;5.90;;;5.30;;
26750;SDS011;14345;48.272;25.926;2023-07-13T05:30:07;6.13;;;5.30;;
26750;SDS011;14345;48.272;25.926;2023-07-13T05:32:36;6.45;;;5.07;;
26750;SDS011;14345;48.272;25.926;2023-07-13T05:35:02;6.35;;;5.20;;
26750;SDS011;14345;48.272;25.926;2023-07-13T05:37:28;6.20;;;4.97;;
26750;SDS011;14345;48.272;25.926;2023-07-13T05:39:54;4.97;;;4.47;;
26750;SDS011;14345;48.272;25.926;2023-07-13T05:42:20;5.47;;;4.80;;
26750;SDS011;14345;48.272;25.926;2023-07-13T05:44:46;5.50;;;4.65;;
26750;SDS011;14345;48.272;25.926;2023-07-13T05:47:12;6.38;;;4.55;;
26750;SDS011;14345;48.272;25.926;2023-07-13T05:49:39;4.90;;;4.40;;
26750;SDS011;14345;48.272;25.926;2023-07-13T05:52:05;5.53;;;4.75;;
26750;SDS011;14345;48.272;25.926;2023-07-13T05:54:31;5.95;;;5.00;;
26750;SDS011;14345;48.272;25.926;2023-07-13T05:56:57;5.95;;;4.63;;
26750;SDS011;14345;48.272;25.926;2023-07-13T05:59:23;5.50;;;4.10;;
26750;SDS011;14345;48.272;25.926;2023-07-13T06:01:50;6.75;;;4.32;;
26750;SDS011;14345;48.272;25.926;2023-07-13T06:04:17;5.78;;;4.40;;
26750;SDS011;14345;48.272;25.926;2023-07-13T06:06:43;5.25;;;4.05;;
26750;SDS011;14345;48.272;25.926;2023-07-13T06:09:09;4.68;;;3.90;;
26750;SDS011;14345;48.272;25.926;2023-07-13T06:11:36;4.20;;;3.80;;
26750;SDS011;14345;48.272;25.926;2023-07-13T06:14:02;4.35;;;3.90;;
26750;SDS011;14345;48.272;25.926;2023-07-13T06:16:29;4.88;;;3.70;;
26750;SDS011;14345;48.272;25.926;2023-07-13T06:18:55;4.57;;;3.85;;
26750;SDS011;14345;48.272;25.926;2023-07-13T06:21:22;4.68;;;4.05;;
26750;SDS011;14345;48.272;25.926;2023-07-13T06:23:49;6.00;;;4.32;;
26750;SDS011;14345;48.272;25.926;2023-07-13T06:26:16;5.57;;;3.65;;
26750;SDS011;14345;48.272;25.926;2023-07-13T06:28:42;4.18;;;3.78;;
26750;SDS011;14345;48.272;25.926;2023-07-13T06:31:09;8.30;;;4.53;;
26750;SDS011;14345;48.272;25.926;2023-07-13T06:33:35;7.10;;;4.22;;
26750;SDS011;14345;48.272;25.926;2023-07-13T06:36:03;5.90;;;5.28;;
26750;SDS011;14345;48.272;25.926;2023-07-13T06:38:29;6.68;;;4.93;;
26750;SDS011;14345;48.272;25.926;2023-07-13T06:40:55;5.85;;;4.03;;
26750;SDS011;14345;48.272;25.926;2023-07-13T06:43:21;4.15;;;3.65;;
26750;SDS011;14345;48.272;25.926;2023-07-13T06:45:49;5.63;;;4.35;;
26750;SDS011;14345;48.272;25.926;2023-07-13T06:48:16;4.90;;;4.38;;
26750;SDS011;14345;48.272;25.926;2023-07-13T06:50:42;4.30;;;3.38;;
26750;SDS011;14345;48.272;25.926;2023-07-13T06:53:09;8.55;;;5.60;;
26750;SDS011;14345;48.272;25.926;2023-07-13T06:55:35;5.65;;;4.57;;
26750;SDS011;14345;48.272;25.926;2023-07-13T06:58:01;5.22;;;4.32;;
26750;SDS011;14345;48.272;25.926;2023-07-13T07:00:27;5.25;;;4.07;;
26750;SDS011;14345;48.272;25.926;2023-07-13T07:02:53;5.22;;;3.80;;
26750;SDS011;14345;48.272;25.926;2023-07-13T07:05:19;4.35;;;3.92;;
26750;SDS011;14345;48.272;25.926;2023-07-13T07:07:47;3.50;;;3.20;;
26750;SDS011;14345;48.272;25.926;2023-07-13T07:10:13;4.45;;;3.95;;
26750;SDS011;14345;48.272;25.926;2023-07-13T07:12:39;6.88;;;4.00;;
26750;SDS011;14345;48.272;25.926;2023-07-13T07:15:05;3.55;;;3.25;;
26750;SDS011;14345;48.272;25.926;2023-07-13T07:17:31;4.03;;;3.63;;
26750;SDS011;14345;48.272;25.926;2023-07-13T07:19:57;8.55;;;3.90;;
26750;SDS011;14345;48.272;25.926;2023-07-13T07:22:23;6.13;;;4.18;;
26750;SDS011;14345;48.272;25.926;2023-07-13T07:24:52;8.25;;;4.35;;
26750;SDS011;14345;48.272;25.926;2023-07-13T07:27:18;7.47;;;4.00;;
26750;SDS011;14345;48.272;25.926;2023-07-13T07:29:44;4.57;;;4.00;;
26750;SDS011;14345;48.272;25.926;2023-07-13T07:32:10;5.85;;;3.55;;
26750;SDS011;14345;48.272;25.926;2023-07-13T07:34:36;4.40;;;4.00;;
26750;SDS011;14345;48.272;25.926;2023-07-13T07:37:02;4.80;;;3.95;;
26750;SDS011;14345;48.272;25.926;2023-07-13T07:39:28;4.35;;;3.63;;
26750;SDS011;14345;48.272;25.926;2023-07-13T07:41:54;5.60;;;4.10;;
26750;SDS011;14345;48.272;25.926;2023-07-13T07:44:20;6.05;;;4.38;;
26750;SDS011;14345;48.272;25.926;2023-07-13T07:46:46;6.60;;;3.15;;
26750;SDS011;14345;48.272;25.926;2023-07-13T07:49:12;3.85;;;3.35;;
26750;SDS011;14345;48.272;25.926;2023-07-13T07:51:38;4.30;;;3.63;;
26750;SDS011;14345;48.272;25.926;2023-07-13T07:54:05;7.47;;;3.97;;
26750;SDS011;14345;48.272;25.926;2023-07-13T07:56:31;9.95;;;3.85;;
26750;SDS011;14345;48.272;25.926;2023-07-13T07:58:57;3.65;;;3.35;;
26750;SDS011;14345;48.272;25.926;2023-07-13T08:01:23;3.00;;;2.75;;
26750;SDS011;14345;48.272;25.926;2023-07-13T08:03:49;4.53;;;3.42;;
26750;SDS011;14345;48.272;25.926;2023-07-13T08:06:15;4.50;;;3.72;;
26750;SDS011;14345;48.272;25.926;2023-07-13T08:08:41;6.53;;;3.53;;
26750;SDS011;14345;48.272;25.926;2023-07-13T08:11:08;3.80;;;3.28;;
26750;SDS011;14345;48.272;25.926;2023-07-13T08:13:34;3.70;;;3.22;;
26750;SDS011;14345;48.272;25.926;2023-07-13T08:16:00;3.35;;;3.05;;
26750;SDS011;14345;48.272;25.926;2023-07-13T08:18:27;4.43;;;3.45;;
26750;SDS011;14345;48.272;25.926;2023-07-13T08:20:53;6.30;;;3.70;;
26750;SDS011;14345;48.272;25.926;2023-07-13T08:23:21;3.47;;;3.17;;
26750;SDS011;14345;48.272;25.926;2023-07-13T08:25:51;4.47;;;3.28;;
26750;SDS011;14345;48.272;25.926;2023-07-13T08:28:17;5.35;;;3.58;;
26750;SDS011;14345;48.272;25.926;2023-07-13T08:30:43;5.93;;;4.05;;
26750;SDS011;14345;48.272;25.926;2023-07-13T08:33:09;6.15;;;3.72;;
26750;SDS011;14345;48.272;25.926;2023-07-13T08:35:35;4.60;;;3.58;;
26750;SDS011;14345;48.272;25.926;2023-07-13T08:38:01;4.43;;;3.97;;
26750;SDS011;14345;48.272;25.926;2023-07-13T08:40:27;5.38;;;4.68;;
26750;SDS011;14345;48.272;25.926;2023-07-13T08:42:55;4.43;;;3.75;;
26750;SDS011;14345;48.272;25.926;2023-07-13T08:45:23;5.22;;;3.65;;
26750;SDS011;14345;48.272;25.926;2023-07-13T08:47:52;4.93;;;3.33;;
26750;SDS011;14345;48.272;25.926;2023-07-13T08:50:19;7.13;;;3.78;;
26750;SDS011;14345;48.272;25.926;2023-07-13T08:52:47;4.78;;;3.90;;
26750;SDS011;14345;48.272;25.926;2023-07-13T08:55:15;5.20;;;3.80;;
26750;SDS011;14345;48.272;25.926;2023-07-13T08:57:43;6.65;;;4.00;;
26750;SDS011;14345;48.272;25.926;2023-07-13T09:00:11;3.72;;;3.42;;
26750;SDS011;14345;48.272;25.926;2023-07-13T09:05:18;3.35;;;3.05;;
26750;SDS011;14345;48.272;25.926;2023-07-13T09:10:18;5.90;;;3.55;;
26750;SDS011;14345;48.272;25.926;2023-07-13T09:17:50;6.28;;;4.97;;
26750;SDS011;14345;48.272;25.926;2023-07-13T09:22:43;12.10;;;4.70;;
26750;SDS011;14345;48.272;25.926;2023-07-13T09:27:55;10.48;;;4.57;;
26750;SDS011;14345;48.272;25.926;2023-07-13T09:30:24;5.47;;;4.07;;
26750;SDS011;14345;48.272;25.926;2023-07-13T09:32:53;6.57;;;4.30;;
26750;SDS011;14345;48.272;25.926;2023-07-13T09:35:20;4.72;;;4.00;;
26750;SDS011;14345;48.272;25.926;2023-07-13T09:37:47;4.63;;;3.88;;
26750;SDS011;14345;48.272;25.926;2023-07-13T09:40:36;5.05;;;4.28;;
26750;SDS011;14345;48.272;25.926;2023-07-13T09:43:00;5.05;;;3.55;;
26750;SDS011;14345;48.272;25.926;2023-07-13T09:45:27;6.18;;;3.78;;
26750;SDS011;14345;48.272;25.926;2023-07-13T09:47:59;6.30;;;3.60;;
26750;SDS011;14345;48.272;25.926;2023-07-13T09:50:25;4.18;;;3.05;;
26750;SDS011;14345;48.272;25.926;2023-07-13T09:52:54;5.25;;;3.38;;
26750;SDS011;14345;48.272;25.926;2023-07-13T09:57:52;4.97;;;3.33;;
26750;SDS011;14345;48.272;25.926;2023-07-13T10:00:26;5.78;;;3.08;;
26750;SDS011;14345;48.272;25.926;2023-07-13T10:03:03;3.05;;;2.75;;
26750;SDS011;14345;48.272;25.926;2023-07-13T10:05:43;3.47;;;3.05;;
26750;SDS011;14345;48.272;25.926;2023-07-13T10:08:23;4.90;;;3.22;;
26750;SDS011;14345;48.272;25.926;2023-07-13T10:10:54;5.05;;;3.30;;
26750;SDS011;14345;48.272;25.926;2023-07-13T10:13:35;4.23;;;3.17;;
26750;SDS011;14345;48.272;25.926;2023-07-13T10:16:02;4.53;;;3.15;;
26750;SDS011;14345;48.272;25.926;2023-07-13T10:18:31;8.30;;;3.25;;
26750;SDS011;14345;48.272;25.926;2023-07-13T10:21:09;7.45;;;3.08;;
26750;SDS011;14345;48.272;25.926;2023-07-13T10:23:35;6.68;;;3.30;;
26750;SDS011;14345;48.272;25.926;2023-07-13T10:26:02;3.95;;;2.53;;
26750;SDS011;14345;48.272;25.926;2023-07-13T10:28:33;2.97;;;2.47;;
26750;SDS011;14345;48.272;25.926;2023-07-13T10:31:01;4.65;;;2.42;;
26750;SDS011;14345;48.272;25.926;2023-07-13T10:33:28;3.08;;;2.40;;
26750;SDS011;14345;48.272;25.926;2023-07-13T10:35:55;3.50;;;2.45;;
26750;SDS011;14345;48.272;25.926;2023-07-13T10:38:26;4.80;;;2.43;;
26750;SDS011;14345;48.272;25.926;2023-07-13T10:41:03;2.42;;;2.13;;
26750;SDS011;14345;48.272;25.926;2023-07-13T10:44:03;3.22;;;2.65;;
26750;SDS011;14345;48.272;25.926;2023-07-13T10:46:22;2.70;;;2.15;;
26750;SDS011;14345;48.272;25.926;2023-07-13T10:48:54;5.10;;;2.45;;
26750;SDS011;14345;48.272;25.926;2023-07-13T10:51:21;3.65;;;2.53;;
26750;SDS011;14345;48.272;25.926;2023-07-13T10:53:48;2.60;;;2.40;;
26750;SDS011;14345;48.272;25.926;2023-07-13T10:56:34;2.83;;;2.53;;
26750;SDS011;14345;48.272;25.926;2023-07-13T10:59:01;2.60;;;2.35;;
26750;SDS011;14345;48.272;25.926;2023-07-13T11:01:28;3.97;;;3.30;;
26750;SDS011;14345;48.272;25.926;2023-07-13T11:04:04;6.47;;;3.28;;
26750;SDS011;14345;48.272;25.926;2023-07-13T11:11:44;5.70;;;3.05;;
26750;SDS011;14345;48.272;25.926;2023-07-13T11:14:28;4.72;;;2.95;;
26750;SDS011;14345;48.272;25.926;2023-07-13T11:16:55;3.67;;;2.90;;
26750;SDS011;14345;48.272;25.926;2023-07-13T11:19:24;4.10;;;3.20;;
26750;SDS011;14345;48.272;25.926;2023-07-13T11:22:10;4.05;;;2.80;;
26750;SDS011;14345;48.272;25.926;2023-07-13T11:25:00;4.45;;;2.90;;
26750;SDS011;14345;48.272;25.926;2023-07-13T11:27:40;3.67;;;2.95;;
26750;SDS011;14345;48.272;25.926;2023-07-13T11:35:31;4.47;;;2.72;;
26750;SDS011;14345;48.272;25.926;2023-07-13T11:37:59;4.03;;;3.15;;
26750;SDS011;14345;48.272;25.926;2023-07-13T11:40:25;4.07;;;3.13;;
26750;SDS011;14345;48.272;25.926;2023-07-13T11:42:58;5.70;;;3.33;;
26750;SDS011;14345;48.272;25.926;2023-07-13T11:45:24;7.18;;;3.60;;
26750;SDS011;14345;48.272;25.926;2023-07-13T11:47:50;4.55;;;3.13;;
26750;SDS011;14345;48.272;25.926;2023-07-13T11:50:20;4.50;;;3.42;;
26750;SDS011;14345;48.272;25.926;2023-07-13T11:52:46;5.22;;;3.15;;
26750;SDS011;14345;48.272;25.926;2023-07-13T11:55:14;5.30;;;3.08;;
26750;SDS011;14345;48.272;25.926;2023-07-13T11:57:42;6.10;;;2.80;;
26750;SDS011;14345;48.272;25.926;2023-07-13T12:00:12;5.22;;;3.00;;
26750;SDS011;14345;48.272;25.926;2023-07-13T12:02:41;4.28;;;2.70;;
26750;SDS011;14345;48.272;25.926;2023-07-13T12:05:11;6.03;;;3.03;;
26750;SDS011;14345;48.272;25.926;2023-07-13T12:07:39;3.65;;;2.47;;
26750;SDS011;14345;48.272;25.926;2023-07-13T12:12:36;6.38;;;2.70;;
26750;SDS011;14345;48.272;25.926;2023-07-13T12:15:06;9.38;;;2.83;;
26750;SDS011;14345;48.272;25.926;2023-07-13T12:17:33;5.53;;;3.03;;
26750;SDS011;14345;48.272;25.926;2023-07-13T12:20:00;7.47;;;2.80;;
26750;SDS011;14345;48.272;25.926;2023-07-13T12:22:26;3.83;;;2.63;;
26750;SDS011;14345;48.272;25.926;2023-07-13T12:24:53;6.10;;;2.80;;
26750;SDS011;14345;48.272;25.926;2023-07-13T12:27:22;8.68;;;3.00;;
26750;SDS011;14345;48.272;25.926;2023-07-13T12:29:50;5.15;;;2.67;;
26750;SDS011;14345;48.272;25.926;2023-07-13T12:32:18;6.63;;;3.47;;
26750;SDS011;14345;48.272;25.926;2023-07-13T12:34:54;6.70;;;3.25;;
26750;SDS011;14345;48.272;25.926;2023-07-13T12:37:21;10.10;;;3.40;;
26750;SDS011;14345;48.272;25.926;2023-07-13T12:39:47;9.50;;;3.40;;
26750;SDS011;14345;48.272;25.926;2023-07-13T12:42:19;7.85;;;3.60;;
26750;SDS011;14345;48.272;25.926;2023-07-13T12:44:52;6.10;;;2.90;;
26750;SDS011;14345;48.272;25.926;2023-07-13T12:47:19;6.80;;;3.15;;
26750;SDS011;14345;48.272;25.926;2023-07-13T12:49:50;5.32;;;2.97;;
26750;SDS011;14345;48.272;25.926;2023-07-13T12:52:17;9.38;;;3.45;;
26750;SDS011;14345;48.272;25.926;2023-07-13T12:54:52;13.02;;;3.13;;
26750;SDS011;14345;48.272;25.926;2023-07-13T12:57:22;8.55;;;3.17;;
26750;SDS011;14345;48.272;25.926;2023-07-13T12:59:51;7.60;;;3.72;;
26750;SDS011;14345;48.272;25.926;2023-07-13T13:02:22;6.28;;;2.85;;
26750;SDS011;14345;48.272;25.926;2023-07-13T13:04:52;7.88;;;3.50;;
26750;SDS011;14345;48.272;25.926;2023-07-13T13:07:20;14.02;;;3.70;;
26750;SDS011;14345;48.272;25.926;2023-07-13T13:09:46;7.55;;;3.15;;
26750;SDS011;14345;48.272;25.926;2023-07-13T13:12:12;9.65;;;3.50;;
26750;SDS011;14345;48.272;25.926;2023-07-13T13:14:38;5.97;;;3.40;;
26750;SDS011;14345;48.272;25.926;2023-07-13T13:17:07;6.53;;;3.50;;
26750;SDS011;14345;48.272;25.926;2023-07-13T13:19:44;10.30;;;3.67;;
26750;SDS011;14345;48.272;25.926;2023-07-13T13:22:11;7.18;;;4.00;;
26750;SDS011;14345;48.272;25.926;2023-07-13T13:24:37;9.45;;;3.88;;
26750;SDS011;14345;48.272;25.926;2023-07-13T13:27:03;7.78;;;4.22;;
26750;SDS011;14345;48.272;25.926;2023-07-13T13:29:31;6.82;;;3.92;;
26750;SDS011;14345;48.272;25.926;2023-07-13T13:31:58;7.57;;;3.45;;
26750;SDS011;14345;48.272;25.926;2023-07-13T13:34:24;7.82;;;3.95;;
26750;SDS011;14345;48.272;25.926;2023-07-13T13:36:51;8.85;;;3.85;;
26750;SDS011;14345;48.272;25.926;2023-07-13T13:39:19;4.03;;;2.85;;
26750;SDS011;14345;48.272;25.926;2023-07-13T13:41:46;5.00;;;3.00;;
26750;SDS011;14345;48.272;25.926;2023-07-13T13:44:13;6.38;;;2.80;;
26750;SDS011;14345;48.272;25.926;2023-07-13T13:46:40;4.88;;;3.55;;
26750;SDS011;14345;48.272;25.926;2023-07-13T13:49:08;9.20;;;7.70;;
26750;SDS011;14345;48.272;25.926;2023-07-13T13:51:36;11.30;;;7.10;;
26750;SDS011;14345;48.272;25.926;2023-07-13T13:54:02;5.00;;;3.78;;
26750;SDS011;14345;48.272;25.926;2023-07-13T13:56:28;5.38;;;3.17;;
26750;SDS011;14345;48.272;25.926;2023-07-13T13:58:54;3.05;;;2.75;;
26750;SDS011;14345;48.272;25.926;2023-07-13T14:01:20;5.50;;;3.13;;
26750;SDS011;14345;48.272;25.926;2023-07-13T14:03:48;5.20;;;2.47;;
26750;SDS011;14345;48.272;25.926;2023-07-13T14:06:16;4.07;;;2.33;;
26750;SDS011;14345;48.272;25.926;2023-07-13T14:08:42;4.10;;;2.45;;
26750;SDS011;14345;48.272;25.926;2023-07-13T14:11:12;4.00;;;2.42;;
26750;SDS011;14345;48.272;25.926;2023-07-13T14:13:41;5.57;;;2.80;;
26750;SDS011;14345;48.272;25.926;2023-07-13T14:16:11;5.60;;;2.63;;
26750;SDS011;14345;48.272;25.926;2023-07-13T14:18:38;4.13;;;2.17;;
26750;SDS011;14345;48.272;25.926;2023-07-13T14:21:08;6.07;;;2.70;;
26750;SDS011;14345;48.272;25.926;2023-07-13T14:23:36;5.13;;;2.83;;
26750;SDS011;14345;48.272;25.926;2023-07-13T14:26:03;3.65;;;2.15;;
26750;SDS011;14345;48.272;25.926;2023-07-13T14:28:30;5.07;;;2.60;;
26750;SDS011;14345;48.272;25.926;2023-07-13T14:30:56;4.43;;;2.53;;
26750;SDS011;14345;48.272;25.926;2023-07-13T14:33:22;3.80;;;2.67;;
26750;SDS011;14345;48.272;25.926;2023-07-13T14:35:48;4.82;;;2.53;;
26750;SDS011;14345;48.272;25.926;2023-07-13T14:38:16;6.10;;;3.10;;
26750;SDS011;14345;48.272;25.926;2023-07-13T14:40:43;3.88;;;2.17;;
26750;SDS011;14345;48.272;25.926;2023-07-13T14:43:10;4.97;;;2.30;;
26750;SDS011;14345;48.272;25.926;2023-07-13T14:45:37;3.70;;;2.00;;
26750;SDS011;14345;48.272;25.926;2023-07-13T14:48:08;3.35;;;1.88;;
26750;SDS011;14345;48.272;25.926;2023-07-13T14:50:35;4.95;;;2.50;;
26750;SDS011;14345;48.272;25.926;2023-07-13T14:53:03;3.40;;;1.92;;
26750;SDS011;14345;48.272;25.926;2023-07-13T14:55:29;4.25;;;1.85;;
26750;SDS011;14345;48.272;25.926;2023-07-13T14:57:55;4.75;;;1.70;;
26750;SDS011;14345;48.272;25.926;2023-07-13T15:00:22;3.88;;;2.15;;
26750;SDS011;14345;48.272;25.926;2023-07-13T15:02:50;3.78;;;2.03;;
26750;SDS011;14345;48.272;25.926;2023-07-13T15:05:20;4.50;;;2.33;;
26750;SDS011;14345;48.272;25.926;2023-07-13T15:07:48;3.95;;;2.28;;